sensor_id;sensor_type;location;lat;lon;timestamp;P1;durP1;ratioP1;P2;durP2;ratioP2
35022;SDS011;21214;44.912;8.204;2023-06-05T13:26:11;7.75;;;7.15;;
35022;SDS011;21214;44.912;8.204;2023-06-05T13:28:37;7.80;;;7.22;;
35022;SDS011;21214;44.912;8.204;2023-06-05T13:31:02;6.03;;;5.53;;
35022;SDS011;21214;44.912;8.204;2023-06-05T13:33:29;4.80;;;4.50;;
35022;SDS011;21214;44.912;8.204;2023-06-05T13:45:40;5.00;;;4.50;;
35022;SDS011;21214;44.912;8.204;2023-06-05T13:48:05;4.40;;;4.10;;
35022;SDS011;21214;44.912;8.204;2023-06-05T13:50:31;5.82;;;5.20;;
35022;SDS011;21214;44.912;8.204;2023-06-05T13:52:56;5.60;;;5.20;;
35022;SDS011;21214;44.912;8.204;2023-06-05T13:57:48;4.80;;;4.50;;
35022;SDS011;21214;44.912;8.204;2023-06-05T14:00:14;5.40;;;4.93;;
35022;SDS011;21214;44.912;8.204;2023-06-05T14:02:40;5.32;;;4.93;;
35022;SDS011;21214;44.912;8.204;2023-06-05T14:05:06;7.35;;;6.80;;
35022;SDS011;21214;44.912;8.204;2023-06-05T14:07:38;4.80;;;4.32;;
35022;SDS011;21214;44.912;8.204;2023-06-05T14:10:04;3.95;;;3.65;;
35022;SDS011;21214;44.912;8.204;2023-06-05T14:12:30;3.28;;;3.08;;
35022;SDS011;21214;44.912;8.204;2023-06-05T14:14:56;3.80;;;3.50;;
35022;SDS011;21214;44.912;8.204;2023-06-05T14:17:22;2.47;;;2.30;;
35022;SDS011;21214;44.912;8.204;2023-06-05T14:19:47;2.63;;;2.42;;
35022;SDS011;21214;44.912;8.204;2023-06-05T14:22:13;2.40;;;1.90;;
35022;SDS011;21214;44.912;8.204;2023-06-05T14:24:39;2.10;;;1.90;;
35022;SDS011;21214;44.912;8.204;2023-06-05T14:27:05;2.10;;;2.00;;
35022;SDS011;21214;44.912;8.204;2023-06-05T14:29:31;1.92;;;1.75;;
35022;SDS011;21214;44.912;8.204;2023-06-05T14:31:57;1.98;;;1.88;;
35022;SDS011;21214;44.912;8.204;2023-06-05T14:34:23;1.90;;;1.80;;
35022;SDS011;21214;44.912;8.204;2023-06-05T14:36:49;3.80;;;1.63;;
35022;SDS011;21214;44.912;8.204;2023-06-05T14:39:17;1.63;;;1.52;;
35022;SDS011;21214;44.912;8.204;2023-06-05T14:41:45;2.38;;;1.65;;
35022;SDS011;21214;44.912;8.204;2023-06-05T14:44:11;1.92;;;1.40;;
35022;SDS011;21214;44.912;8.204;2023-06-05T14:46:37;1.40;;;1.30;;
35022;SDS011;21214;44.912;8.204;2023-06-05T14:49:02;1.85;;;1.52;;
35022;SDS011;21214;44.912;8.204;2023-06-05T14:51:28;1.60;;;1.50;;
35022;SDS011;21214;44.912;8.204;2023-06-05T14:53:54;3.00;;;2.40;;
35022;SDS011;21214;44.912;8.204;2023-06-05T14:56:19;3.15;;;2.10;;
35022;SDS011;21214;44.912;8.204;2023-06-05T14:58:46;6.38;;;2.58;;
35022;SDS011;21214;44.912;8.204;2023-06-05T15:01:17;2.50;;;2.30;;
35022;SDS011;21214;44.912;8.204;2023-06-05T15:03:42;1.65;;;1.55;;
35022;SDS011;21214;44.912;8.204;2023-06-05T15:06:10;2.05;;;1.92;;
35022;SDS011;21214;44.912;8.204;2023-06-05T15:50:02;5.53;;;2.38;;
35022;SDS011;21214;44.912;8.204;2023-06-05T15:52:30;2.25;;;2.10;;
35022;SDS011;21214;44.912;8.204;2023-06-05T15:54:56;2.60;;;2.40;;
35022;SDS011;21214;44.912;8.204;2023-06-05T15:57:23;3.20;;;2.95;;
35022;SDS011;21214;44.912;8.204;2023-06-05T15:59:49;3.75;;;2.90;;
35022;SDS011;21214;44.912;8.204;2023-06-05T16:02:15;4.35;;;4.00;;
35022;SDS011;21214;44.912;8.204;2023-06-05T16:04:41;5.20;;;3.28;;
35022;SDS011;21214;44.912;8.204;2023-06-05T16:07:07;2.88;;;2.67;;
35022;SDS011;21214;44.912;8.204;2023-06-05T16:09:33;3.00;;;2.70;;
35022;SDS011;21214;44.912;8.204;2023-06-05T16:11:59;3.17;;;2.88;;
35022;SDS011;21214;44.912;8.204;2023-06-05T16:14:26;2.97;;;2.78;;
35022;SDS011;21214;44.912;8.204;2023-06-05T16:16:55;3.10;;;2.90;;
35022;SDS011;21214;44.912;8.204;2023-06-05T16:19:21;3.85;;;3.00;;
35022;SDS011;21214;44.912;8.204;2023-06-05T16:21:46;3.47;;;3.17;;
35022;SDS011;21214;44.912;8.204;2023-06-05T16:24:12;3.63;;;3.35;;
35022;SDS011;21214;44.912;8.204;2023-06-05T16:26:39;3.05;;;2.75;;
35022;SDS011;21214;44.912;8.204;2023-06-05T16:29:05;3.03;;;2.83;;
35022;SDS011;21214;44.912;8.204;2023-06-05T16:31:31;2.80;;;2.60;;
35022;SDS011;21214;44.912;8.204;2023-06-05T16:33:56;3.42;;;3.13;;
35022;SDS011;21214;44.912;8.204;2023-06-05T16:36:25;3.90;;;3.40;;
35022;SDS011;21214;44.912;8.204;2023-06-05T16:38:51;3.28;;;3.08;;
35022;SDS011;21214;44.912;8.204;2023-06-05T16:41:20;3.33;;;3.08;;
35022;SDS011;21214;44.912;8.204;2023-06-05T16:43:46;3.58;;;3.38;;
35022;SDS011;21214;44.912;8.204;2023-06-05T16:46:11;4.80;;;4.50;;
35022;SDS011;21214;44.912;8.204;2023-06-05T16:48:38;6.57;;;6.05;;
35022;SDS011;21214;44.912;8.204;2023-06-05T16:51:04;6.57;;;6.18;;
35022;SDS011;21214;44.912;8.204;2023-06-05T16:53:29;8.65;;;7.85;;
35022;SDS011;21214;44.912;8.204;2023-06-05T16:55:55;8.90;;;8.20;;
35022;SDS011;21214;44.912;8.204;2023-06-05T16:58:21;9.00;;;8.27;;
35022;SDS011;21214;44.912;8.204;2023-06-05T17:00:46;9.75;;;8.95;;
35022;SDS011;21214;44.912;8.204;2023-06-05T17:03:14;10.23;;;9.43;;
35022;SDS011;21214;44.912;8.204;2023-06-05T17:05:40;10.35;;;9.55;;
35022;SDS011;21214;44.912;8.204;2023-06-05T17:08:06;11.15;;;10.23;;
35022;SDS011;21214;44.912;8.204;2023-06-05T17:10:34;10.65;;;9.75;;
35022;SDS011;21214;44.912;8.204;2023-06-05T17:13:00;9.77;;;8.98;;
35022;SDS011;21214;44.912;8.204;2023-06-05T17:15:27;9.70;;;8.80;;
35022;SDS011;21214;44.912;8.204;2023-06-05T17:17:52;8.77;;;8.07;;
35022;SDS011;21214;44.912;8.204;2023-06-05T17:20:18;8.48;;;7.88;;
35022;SDS011;21214;44.912;8.204;2023-06-05T17:22:48;8.40;;;7.70;;
35022;SDS011;21214;44.912;8.204;2023-06-05T17:25:13;8.43;;;7.72;;
35022;SDS011;21214;44.912;8.204;2023-06-05T17:27:41;7.95;;;7.35;;
35022;SDS011;21214;44.912;8.204;2023-06-05T17:30:06;6.97;;;6.43;;
35022;SDS011;21214;44.912;8.204;2023-06-05T17:32:32;7.32;;;6.65;;
35022;SDS011;21214;44.912;8.204;2023-06-05T17:34:58;6.43;;;5.80;;
35022;SDS011;21214;44.912;8.204;2023-06-05T17:37:24;6.95;;;6.45;;
35022;SDS011;21214;44.912;8.204;2023-06-05T17:39:50;6.80;;;5.72;;
35022;SDS011;21214;44.912;8.204;2023-06-05T17:42:16;5.75;;;5.10;;
35022;SDS011;21214;44.912;8.204;2023-06-05T17:44:42;5.93;;;5.30;;
35022;SDS011;21214;44.912;8.204;2023-06-05T17:47:07;5.63;;;5.20;;
35022;SDS011;21214;44.912;8.204;2023-06-05T17:49:35;5.45;;;5.05;;
35022;SDS011;21214;44.912;8.204;2023-06-05T17:52:01;7.07;;;5.53;;
35022;SDS011;21214;44.912;8.204;2023-06-05T17:54:27;5.43;;;5.03;;
35022;SDS011;21214;44.912;8.204;2023-06-05T17:56:53;4.70;;;4.30;;
35022;SDS011;21214;44.912;8.204;2023-06-05T17:59:19;5.00;;;4.70;;
35022;SDS011;21214;44.912;8.204;2023-06-05T18:01:44;5.22;;;4.63;;
35022;SDS011;21214;44.912;8.204;2023-06-05T18:04:11;4.93;;;4.63;;
35022;SDS011;21214;44.912;8.204;2023-06-05T18:06:37;6.07;;;5.40;;
35022;SDS011;21214;44.912;8.204;2023-06-05T18:09:03;5.25;;;4.95;;
35022;SDS011;21214;44.912;8.204;2023-06-05T18:11:29;4.97;;;4.68;;
35022;SDS011;21214;44.912;8.204;2023-06-05T18:13:55;4.75;;;4.45;;
35022;SDS011;21214;44.912;8.204;2023-06-05T18:16:23;4.65;;;4.35;;
35022;SDS011;21214;44.912;8.204;2023-06-05T18:18:51;5.25;;;4.85;;
35022;SDS011;21214;44.912;8.204;2023-06-05T18:21:17;4.28;;;4.00;;
35022;SDS011;21214;44.912;8.204;2023-06-05T18:23:43;5.20;;;4.70;;
35022;SDS011;21214;44.912;8.204;2023-06-05T18:26:09;4.18;;;3.88;;
35022;SDS011;21214;44.912;8.204;2023-06-05T18:28:37;4.47;;;4.18;;
35022;SDS011;21214;44.912;8.204;2023-06-05T18:31:04;4.47;;;4.03;;
35022;SDS011;21214;44.912;8.204;2023-06-05T18:33:29;4.70;;;4.40;;
35022;SDS011;21214;44.912;8.204;2023-06-05T18:35:56;4.07;;;3.78;;
35022;SDS011;21214;44.912;8.204;2023-06-05T18:38:22;4.70;;;4.40;;
35022;SDS011;21214;44.912;8.204;2023-06-05T18:40:48;4.65;;;4.35;;
35022;SDS011;21214;44.912;8.204;2023-06-05T18:43:14;4.13;;;3.83;;
35022;SDS011;21214;44.912;8.204;2023-06-05T18:45:42;4.32;;;4.03;;
35022;SDS011;21214;44.912;8.204;2023-06-05T18:48:08;4.57;;;4.20;;
35022;SDS011;21214;44.912;8.204;2023-06-05T18:50:33;5.10;;;4.10;;
35022;SDS011;21214;44.912;8.204;2023-06-05T18:52:59;3.83;;;3.55;;
35022;SDS011;21214;44.912;8.204;2023-06-05T18:55:26;4.50;;;4.20;;
35022;SDS011;21214;44.912;8.204;2023-06-05T18:57:51;4.80;;;4.50;;
35022;SDS011;21214;44.912;8.204;2023-06-05T19:00:17;4.47;;;4.18;;
35022;SDS011;21214;44.912;8.204;2023-06-05T19:02:43;4.65;;;4.35;;
35022;SDS011;21214;44.912;8.204;2023-06-05T19:05:09;4.80;;;4.32;;
35022;SDS011;21214;44.912;8.204;2023-06-05T19:07:39;5.67;;;5.27;;
35022;SDS011;21214;44.912;8.204;2023-06-05T19:10:05;4.40;;;4.07;;
35022;SDS011;21214;44.912;8.204;2023-06-05T19:12:32;4.45;;;4.15;;
